Time;durP1;ratioP1;P1;durP2;ratioP2;P2;SDS_P1;SDS_P2;PMS_P1;PMS_P2;Temp;Humidity;BMP_temperature;BMP_pressure;BME280_temperature;BME280_humidity;BME280_pressure;Samples;Min_cycle;Max_cycle;Signal;HPM_P1;HPM_P2
2022/05/09 00:05:52;;;;;;;1999.90;999.90;;;;;;;12.18;58.15;102325.94;15642067;28;20055;-60
2022/05/09 00:13:24;;;;;;;1999.90;999.90;;;;;;;12.06;58.14;102323.59;15632210;28;20053;-61
2022/05/09 00:20:58;;;;;;;1999.90;999.90;;;;;;;11.85;59.42;102323.09;15674205;28;20666;-61
2022/05/09 00:28:30;;;;;;;1999.90;999.90;;;;;;;11.64;59.45;102322.53;15641281;28;20499;-61
2022/05/09 00:36:06;;;;;;;1999.90;999.90;;;;;;;11.44;60.31;102325.59;15622650;28;20513;-61
2022/05/09 00:43:40;;;;;;;1999.90;999.90;;;;;;;11.28;60.61;102328.63;15657259;28;20049;-61
2022/05/09 00:51:20;;;;;;;1999.90;999.90;;;;;;;10.96;61.82;102323.69;15640736;28;20454;-62
2022/05/09 00:58:57;;;;;;;1999.90;999.90;;;;;;;10.98;61.94;102334.56;15659142;28;20073;-60
2022/05/09 01:06:32;;;;;;;1999.90;999.90;;;;;;;10.80;61.91;102335.31;15645924;28;20069;-61
2022/05/09 01:14:08;;;;;;;1999.90;999.90;;;;;;;10.68;62.49;102332.94;15630248;28;20462;-61
2022/05/09 01:21:45;;;;;;;1999.90;999.90;;;;;;;10.51;63.74;102332.53;15634669;28;20052;-61
2022/05/09 01:29:22;;;;;;;1999.90;999.90;;;;;;;10.37;64.06;102330.44;15650401;28;20156;-61
2022/05/09 01:37:03;;;;;;;1999.90;999.90;;;;;;;10.36;64.22;102336.31;15628639;28;20142;-61
2022/05/09 01:44:37;;;;;;;1999.90;999.90;;;;;;;10.28;64.92;102336.94;15629833;28;20498;-58
2022/05/09 01:52:14;;;;;;;1999.90;999.90;;;;;;;10.26;64.68;102340.00;15660613;28;20512;-59
2022/05/09 01:59:46;;;;;;;1999.90;999.90;;;;;;;10.09;65.30;102332.00;15645822;28;20053;-59
2022/05/09 02:07:23;;;;;;;1999.90;999.90;;;;;;;9.96;65.89;102341.03;15641768;28;20122;-58
2022/05/09 02:14:55;;;;;;;1999.90;999.90;;;;;;;9.85;65.54;102342.25;15642984;28;20053;-61
2022/05/09 02:22:30;;;;;;;1999.90;999.90;;;;;;;9.79;65.04;102340.59;15639607;28;20606;-59
2022/05/09 02:30:04;;;;;;;1999.90;999.90;;;;;;;9.61;65.49;102342.13;15637297;28;20508;-59
2022/05/09 02:37:42;;;;;;;1999.90;999.90;;;;;;;9.61;66.11;102346.84;15640084;28;20161;-60
2022/05/09 02:45:14;;;;;;;1999.90;999.90;;;;;;;9.60;66.15;102354.38;15660459;28;20041;-59
2022/05/09 02:52:48;;;;;;;1999.90;999.90;;;;;;;9.67;65.92;102343.72;15666879;28;20131;-59
2022/05/09 03:00:25;;;;;;;1999.90;999.90;;;;;;;9.43;66.74;102346.38;15622113;28;20053;-57
2022/05/09 03:07:59;;;;;;;1999.90;999.90;;;;;;;9.71;66.00;102344.84;15629087;28;20049;-60
2022/05/09 03:15:37;;;;;;;1999.90;999.90;;;;;;;9.78;66.09;102350.06;15629257;28;20083;-55
2022/05/09 03:23:11;;;;;;;1999.90;999.90;;;;;;;9.71;66.61;102364.34;15631131;28;20072;-58
2022/05/09 03:30:44;;;;;;;1999.90;999.90;;;;;;;9.68;66.76;102359.34;15613443;28;20142;-59
2022/05/09 03:38:21;;;;;;;1999.90;999.90;;;;;;;9.72;67.53;102370.75;15661449;28;20052;-58
2022/05/09 03:45:55;;;;;;;1999.90;999.90;;;;;;;9.52;68.57;102363.34;15664557;28;20156;-59
2022/05/09 03:53:28;;;;;;;;;;;;;;;9.84;68.20;102369.28;15662103;28;20459;-60
2022/05/09 04:01:03;;;;;;;1999.90;999.90;;;;;;;9.73;68.27;102375.22;15620081;28;19925;-59
2022/05/09 04:08:37;;;;;;;1999.90;999.90;;;;;;;9.77;69.42;102368.75;15632773;28;20166;-57
2022/05/09 04:24:02;;;;;;;1999.90;999.90;;;;;;;10.23;68.94;102376.88;15642010;28;20060;-60
2022/05/09 04:31:34;;;;;;;1999.90;999.90;;;;;;;10.46;68.55;102394.81;15622772;28;20497;-61
2022/05/09 04:39:23;;;;;;;1999.90;999.90;;;;;;;10.50;68.89;102372.72;15651883;28;20103;-59
2022/05/09 04:46:55;;;;;;;1999.90;999.90;;;;;;;10.92;68.15;102391.59;15633769;28;20052;-62
2022/05/09 04:54:29;;;;;;;1999.90;999.90;;;;;;;11.25;67.64;102389.84;15654862;28;20056;-61
2022/05/09 05:02:05;;;;;;;1999.90;999.90;;;;;;;11.81;65.69;102392.81;15655793;28;20057;-61
2022/05/09 05:09:41;;;;;;;;;;;;;;;11.55;65.62;102400.66;15638143;28;20045;-61
2022/05/09 05:17:13;;;;;;;1999.90;999.90;;;;;;;11.91;65.23;102408.63;15705373;23;19920;-58
2022/05/09 05:24:51;;;;;;;1999.90;999.90;;;;;;;12.96;62.20;102412.78;15744608;28;20060;-60
2022/05/09 05:32:26;;;;;;;1999.90;999.90;;;;;;;13.44;61.25;102415.25;15683014;28;20045;-60
2022/05/09 05:40:01;;;;;;;1999.90;999.90;;;;;;;13.83;58.94;102409.09;15660847;28;20190;-61
2022/05/09 05:47:34;;;;;;;1999.90;999.90;;;;;;;13.85;59.03;102414.38;15711597;28;20136;-62
2022/05/09 05:55:09;;;;;;;1999.90;999.90;;;;;;;14.50;58.47;102421.63;15656150;28;20155;-62
2022/05/09 06:02:44;;;;;;;1999.90;999.90;;;;;;;15.19;55.83;102419.25;15618640;28;20041;-62
2022/05/09 06:10:18;;;;;;;1999.90;999.90;;;;;;;15.57;54.35;102425.19;15618835;28;20103;-63
2022/05/09 06:17:50;;;;;;;1999.90;999.90;;;;;;;16.27;52.77;102438.28;15617559;28;20068;-62
2022/05/09 06:25:24;;;;;;;1999.90;999.90;;;;;;;16.76;50.57;102446.59;15619007;28;20045;-62
2022/05/09 06:32:57;;;;;;;1999.90;999.90;;;;;;;17.26;49.14;102455.28;15647790;28;20076;-63
2022/05/09 06:40:32;;;;;;;1999.90;999.90;;;;;;;17.56;49.82;102459.81;15686480;28;20065;-59
2022/05/09 06:48:05;;;;;;;1999.90;999.90;;;;;;;18.36;47.42;102450.56;15681774;28;20052;-62
2022/05/09 06:55:39;;;;;;;1999.90;999.90;;;;;;;18.69;48.46;102448.63;15671030;28;20091;-67
2022/05/09 07:03:12;;;;;;;1999.90;999.90;;;;;;;18.93;48.27;102453.53;15673435;28;20052;-61
2022/05/09 07:10:46;;;;;;;;;;;;;;;20.22;43.31;102455.06;15681934;28;20084;-55
2022/05/09 07:18:18;;;;;;;1999.90;999.90;;;;;;;21.18;40.72;102463.63;15679413;28;19951;-58
2022/05/09 07:25:56;;;;;;;1999.90;999.90;;;;;;;20.93;41.94;102452.38;15685581;28;20072;-58
2022/05/09 07:33:29;;;;;;;1999.90;999.90;;;;;;;20.64;40.72;102455.59;15678738;28;20045;-62
2022/05/09 07:41:03;;;;;;;1999.90;999.90;;;;;;;21.49;42.31;102455.16;15685112;28;20049;-54
2022/05/09 07:48:35;;;;;;;1999.90;999.90;;;;;;;22.39;40.78;102463.81;15684623;28;20083;-61
2022/05/09 07:56:09;;;;;;;1999.90;999.90;;;;;;;23.35;38.29;102456.44;15668391;28;20045;-62
2022/05/09 08:03:42;;;;;;;1999.90;999.90;;;;;;;24.30;35.93;102451.50;15657807;28;20041;-63
2022/05/09 08:11:17;;;;;;;1999.90;999.90;;;;;;;24.28;35.87;102456.78;15659075;28;20399;-62
2022/05/09 08:18:49;;;;;;;1999.90;999.90;;;;;;;23.82;37.92;102453.22;15677210;28;20071;-63
2022/05/09 08:26:27;;;;;;;1999.90;999.90;;;;;;;23.89;36.22;102447.63;15683726;28;20064;-61
2022/05/09 08:34:00;;;;;;;1999.90;999.90;;;;;;;24.90;34.41;102453.50;15683549;28;20124;-61
2022/05/09 08:41:36;;;;;;;;;;;;;;;24.70;33.02;102453.69;15682588;28;20131;-61
2022/05/09 08:49:26;;;;;;;1999.90;999.90;;;;;;;25.99;33.84;102447.22;15682977;28;19921;-61
2022/05/09 08:57:04;;;;;;;1999.90;999.90;;;;;;;25.41;35.10;102442.22;15674917;28;20060;-63
2022/05/09 09:04:38;;;;;;;1999.90;999.90;;;;;;;25.42;31.50;102451.63;15681943;28;20080;-63
2022/05/09 09:12:28;;;;;;;1999.90;999.90;;;;;;;26.06;29.74;102438.72;15617766;28;20498;-63
2022/05/09 09:20:21;;;;;;;1999.90;999.90;;;;;;;26.43;28.14;102437.69;15619338;28;20048;-61
2022/05/09 09:28:02;;;;;;;1999.90;999.90;;;;;;;26.13;28.98;102437.91;15670599;28;20099;-63
2022/05/09 09:35:44;;;;;;;1999.90;999.90;;;;;;;26.08;27.91;102441.16;15684042;28;20045;-61
2022/05/09 09:43:19;;;;;;;1999.90;999.90;;;;;;;26.88;25.18;102427.63;15668937;28;20060;-63
2022/05/09 09:50:55;;;;;;;1999.90;999.90;;;;;;;26.41;26.38;102417.25;15680212;28;20053;-62
2022/05/09 09:58:30;;;;;;;1999.90;999.90;;;;;;;26.38;28.09;102416.03;15679861;28;20476;-61
2022/05/09 10:06:04;;;;;;;1999.90;999.90;;;;;;;26.32;28.02;102411.84;15678343;28;20041;-63
2022/05/09 10:13:42;;;;;;;1999.90;999.90;;;;;;;28.98;23.85;102406.50;15678874;28;20095;-63
2022/05/09 10:24:47;;;;;;;1999.90;999.90;;;;;;;27.81;25.41;102394.19;15678436;28;20041;-63
2022/05/09 10:29:18;;;;;;;1999.90;999.90;;;;;;;28.29;26.37;102387.94;15679453;28;20313;-62
2022/05/09 10:36:54;;;;;;;1999.90;999.90;;;;;;;28.32;24.28;102378.47;15686320;28;20501;-63
2022/05/09 10:44:39;;;;;;;1999.90;999.90;;;;;;;30.70;21.49;102371.91;15677472;28;20049;-63
2022/05/09 10:52:29;;;;;;;1999.90;999.90;;;;;;;31.25;22.15;102362.00;15676012;28;20426;-64
2022/05/09 11:00:10;;;;;;;1999.90;999.90;;;;;;;29.80;21.87;102359.78;15689071;28;20036;-63
2022/05/09 11:07:50;;;;;;;1999.90;999.90;;;;;;;29.81;22.13;102341.31;15663895;28;20045;-62
2022/05/09 11:15:32;;;;;;;1999.90;999.90;;;;;;;30.24;21.15;102330.13;15661433;28;20078;-63
2022/05/09 11:23:22;;;;;;;1999.90;999.90;;;;;;;29.24;20.32;102325.38;15685306;28;20056;-63
2022/05/09 11:31:10;;;;;;;1999.90;999.90;;;;;;;30.11;20.20;102317.53;15661176;28;20045;-64
2022/05/09 11:38:58;;;;;;;1999.90;999.90;;;;;;;30.43;20.39;102300.66;15679117;28;20452;-63
2022/05/09 11:46:48;;;;;;;1999.90;999.90;;;;;;;30.53;21.00;102298.03;15686640;28;20045;-62
2022/05/09 11:54:29;;;;;;;1999.90;999.90;;;;;;;30.33;20.84;102295.06;15685511;28;20047;-65
2022/05/09 12:02:06;;;;;;;1999.90;999.90;;;;;;;30.91;19.82;102299.53;15684835;28;20045;-63
2022/05/09 12:10:02;;;;;;;1999.90;999.90;;;;;;;29.04;22.72;102272.59;15685984;28;20079;-63
2022/05/09 12:17:40;;;;;;;1999.90;999.90;;;;;;;31.74;20.08;102273.72;15680805;28;20095;-62
2022/05/09 12:25:30;;;;;;;1999.90;999.90;;;;;;;31.16;20.06;102276.06;15656874;28;20079;-62
2022/05/09 12:33:14;;;;;;;1999.90;999.90;;;;;;;32.17;17.25;102272.84;15679071;28;20067;-61
2022/05/09 12:40:46;;;;;;;1999.90;999.90;;;;;;;33.02;17.23;102270.84;15675330;28;20048;-61
2022/05/09 12:48:23;;;;;;;1999.90;999.90;;;;;;;35.45;16.47;102258.44;15696464;28;20044;-62
2022/05/09 12:55:58;;;;;;;1999.90;999.90;;;;;;;33.88;17.44;102251.16;15717577;28;20040;-63
2022/05/09 13:03:41;;;;;;;1999.90;999.90;;;;;;;33.75;16.21;102238.69;15733916;28;20044;-63
2022/05/09 13:11:16;;;;;;;1999.90;999.90;;;;;;;35.35;16.10;102218.16;15720325;28;20090;-63
2022/05/09 13:18:50;;;;;;;1999.90;999.90;;;;;;;36.42;14.79;102211.97;15700896;28;20113;-63
2022/05/09 13:26:26;;;;;;;1999.90;999.90;;;;;;;31.89;18.47;102207.91;15707969;28;20036;-61
2022/05/09 13:34:01;;;;;;;1999.90;999.90;;;;;;;28.21;19.72;102194.00;15709248;28;20168;-60
2022/05/09 13:41:39;;;;;;;1999.90;999.90;;;;;;;26.33;22.39;102172.31;15696397;28;20049;-61
2022/05/09 13:49:17;;;;;;;1999.90;999.90;;;;;;;25.79;21.86;102165.66;15685420;28;20132;-61
2022/05/09 13:57:09;;;;;;;1999.90;999.90;;;;;;;26.21;21.37;102159.22;15687692;28;20052;-60
2022/05/09 14:04:45;;;;;;;1999.90;999.90;;;;;;;26.02;21.77;102136.72;15695719;28;20406;-57
2022/05/09 14:12:22;;;;;;;1999.90;999.90;;;;;;;25.14;21.83;102135.13;15685775;28;20040;-60
2022/05/09 14:19:58;;;;;;;1999.90;999.90;;;;;;;24.69;22.29;102123.78;15681409;28;20045;-60
2022/05/09 14:35:42;;;;;;;1999.90;999.90;;;;;;;24.50;23.60;102095.53;15666347;28;20040;-62
2022/05/09 14:43:29;;;;;;;1999.90;999.90;;;;;;;25.29;23.48;102091.94;15679520;28;20413;-60
2022/05/09 14:51:04;;;;;;;1999.90;999.90;;;;;;;25.36;23.04;102087.50;15669886;28;20413;-63
2022/05/09 14:58:40;;;;;;;1999.90;999.90;;;;;;;24.48;23.53;102073.09;15678672;28;20065;-62
2022/05/09 15:06:15;;;;;;;1999.90;999.90;;;;;;;25.37;23.49;102072.81;15677580;28;20071;-62
2022/05/09 15:13:48;;;;;;;1999.90;999.90;;;;;;;25.74;23.66;102057.41;15699017;28;20045;-61
2022/05/09 15:21:22;;;;;;;1999.90;999.90;;;;;;;25.45;23.50;102053.66;15692919;28;20059;-61
2022/05/09 15:28:56;;;;;;;1999.90;999.90;;;;;;;24.84;23.72;102052.53;15676008;28;20045;-61
2022/05/09 15:36:31;;;;;;;;;;;;;;;24.56;24.18;102044.59;15707434;28;20132;-61
2022/05/09 15:44:09;;;;;;;1999.90;999.90;;;;;;;24.97;24.03;102028.94;15708245;28;19920;-62
2022/05/09 15:51:43;;;;;;;1999.90;999.90;;;;;;;24.68;24.70;102022.25;15672361;28;20045;-62
2022/05/09 15:59:21;;;;;;;1999.90;999.90;;;;;;;24.02;25.97;102029.91;15670166;28;20029;-63
2022/05/09 16:14:47;;;;;;;1999.90;999.90;;;;;;;24.32;24.84;102011.84;15719674;28;20048;-62
2022/05/09 16:22:21;;;;;;;1999.90;999.90;;;;;;;24.17;25.06;102005.19;15700726;28;20052;-63
2022/05/09 16:29:56;;;;;;;1999.90;999.90;;;;;;;24.52;25.54;101990.38;15703070;28;20033;-63
2022/05/09 16:37:29;;;;;;;1999.90;999.90;;;;;;;24.26;25.47;101990.56;15724988;28;20135;-61
2022/05/09 16:45:06;;;;;;;1999.90;999.90;;;;;;;23.61;26.85;101983.53;15689571;28;20064;-62
2022/05/09 16:52:40;;;;;;;1999.90;999.90;;;;;;;23.71;26.88;101982.81;15675751;28;20057;-62
2022/05/09 17:00:16;;;;;;;1999.90;999.90;;;;;;;23.50;26.94;101988.28;15686517;28;20048;-62
2022/05/09 17:07:50;;;;;;;1999.90;999.90;;;;;;;23.43;27.92;101974.75;15732639;28;20033;-61
2022/05/09 17:15:27;;;;;;;1999.90;999.90;;;;;;;23.40;28.72;101984.09;15679014;28;20049;-63
2022/05/09 17:23:02;;;;;;;1999.90;999.90;;;;;;;23.60;27.09;101971.31;15717076;28;20070;-63
2022/05/09 17:30:35;;;;;;;1999.90;999.90;;;;;;;23.28;28.69;101973.81;15734174;28;20037;-64
2022/05/09 17:38:09;;;;;;;1999.90;999.90;;;;;;;23.06;27.57;101963.41;15713323;28;20044;-62
2022/05/09 17:45:44;;;;;;;1999.90;999.90;;;;;;;23.08;30.94;101971.53;15691642;28;20060;-62
2022/05/09 17:53:28;;;;;;;;;;;;;;;;;;;;;
2022/05/09 18:01:13;;;;;;;1999.90;999.90;;;;;;;22.64;30.68;101966.50;15678097;28;20045;-60
2022/05/09 18:08:53;;;;;;;;;;;;;;;22.44;31.94;101974.34;15698427;28;20056;-64
2022/05/09 18:16:28;;;;;;;1999.90;999.90;;;;;;;22.08;35.21;101970.94;15692626;28;19921;-61
2022/05/09 18:24:09;;;;;;;1999.90;999.90;;;;;;;21.76;36.18;101969.56;15657276;28;20501;-64
2022/05/09 18:31:45;;;;;;;1999.90;999.90;;;;;;;21.36;36.38;101965.19;15704151;28;20045;-65
2022/05/09 18:39:23;;;;;;;1999.90;999.90;;;;;;;21.06;35.71;101978.38;15718610;28;20474;-63
2022/05/09 18:46:57;;;;;;;1999.90;999.90;;;;;;;20.63;38.11;101986.78;15682613;28;20040;-65
2022/05/09 18:54:31;;;;;;;1999.90;999.90;;;;;;;20.16;35.29;101982.03;15667121;28;20048;-64
2022/05/09 19:02:04;;;;;;;1999.90;999.90;;;;;;;20.22;36.85;101984.59;15664915;28;20049;-61
2022/05/09 19:09:42;;;;;;;1999.90;999.90;;;;;;;20.13;39.09;101985.63;15667363;28;20079;-61
2022/05/09 19:17:15;;;;;;;1999.90;999.90;;;;;;;19.70;38.44;101988.59;15707036;28;20037;-62
2022/05/09 19:24:49;;;;;;;1999.90;999.90;;;;;;;19.68;39.68;101985.28;15685209;28;20041;-60
2022/05/09 19:32:26;;;;;;;1999.90;999.90;;;;;;;19.45;41.05;101991.53;15683906;28;20079;-60
2022/05/09 19:39:59;;;;;;;1999.90;999.90;;;;;;;19.35;41.68;101989.22;15705935;28;20529;-59
2022/05/09 19:47:34;;;;;;;1999.90;999.90;;;;;;;19.08;39.96;101990.09;15664903;28;20099;-60
2022/05/09 19:55:09;;;;;;;1999.90;999.90;;;;;;;18.60;41.48;101983.38;15678630;28;20088;-60
2022/05/09 20:02:43;;;;;;;1999.90;999.90;;;;;;;18.40;41.98;101986.00;15683082;28;20463;-59
2022/05/09 20:10:20;;;;;;;1999.90;999.90;;;;;;;18.45;41.65;101984.97;15705103;28;20079;-61
2022/05/09 20:17:53;;;;;;;1999.90;999.90;;;;;;;18.42;41.59;101991.31;15695512;28;20091;-60
2022/05/09 20:25:32;;;;;;;1999.90;999.90;;;;;;;18.24;42.07;101979.47;15704937;28;20097;-58
2022/05/09 20:33:04;;;;;;;1999.90;999.90;;;;;;;18.02;42.98;101983.56;15720504;28;20750;-60
2022/05/09 20:40:40;;;;;;;1999.90;999.90;;;;;;;17.91;42.81;101992.88;15706762;28;20053;-59
2022/05/09 20:48:12;;;;;;;1999.90;999.90;;;;;;;17.81;43.38;101997.78;15674040;28;20072;-60
2022/05/09 20:55:46;;;;;;;1999.90;999.90;;;;;;;17.62;44.22;101985.41;15687613;28;20501;-58
2022/05/09 21:03:19;;;;;;;1999.90;999.90;;;;;;;17.35;43.89;101984.06;15728352;28;20045;-61
2022/05/09 21:10:54;;;;;;;1999.90;999.90;;;;;;;17.39;44.87;101979.34;15676210;28;20421;-61
2022/05/09 21:18:27;;;;;;;1999.90;999.90;;;;;;;17.08;45.27;101986.31;15674876;28;20037;-60
2022/05/09 21:26:01;;;;;;;1999.90;999.90;;;;;;;16.94;44.64;101975.34;15696940;28;20080;-60
2022/05/09 21:33:34;;;;;;;1999.90;999.90;;;;;;;16.86;45.01;101981.88;15672008;28;20052;-60
2022/05/09 21:41:09;;;;;;;1999.90;999.90;;;;;;;16.56;45.70;101969.00;15665386;28;20128;-57
2022/05/09 21:48:41;;;;;;;1999.90;999.90;;;;;;;16.62;45.32;101968.47;15673324;28;20052;-58
2022/05/09 21:56:21;;;;;;;1999.90;999.90;;;;;;;16.56;45.58;101961.38;15713314;28;20047;-59
2022/05/09 22:03:54;;;;;;;1999.90;999.90;;;;;;;16.47;45.65;101957.00;15675120;28;20147;-59
2022/05/09 22:11:28;;;;;;;1999.90;999.90;;;;;;;16.14;46.51;101947.25;15722171;28;20068;-56
2022/05/09 22:19:00;;;;;;;1999.90;999.90;;;;;;;16.03;46.87;101940.38;15721875;28;20048;-60
2022/05/09 22:26:36;;;;;;;1999.90;999.90;;;;;;;16.14;46.19;101936.00;15707099;28;20040;-58
2022/05/09 22:34:08;;;;;;;1999.90;999.90;;;;;;;15.97;46.46;101936.13;15700299;28;20041;-60
2022/05/09 22:41:44;;;;;;;1999.90;999.90;;;;;;;15.81;46.50;101918.16;15686848;28;20131;-60
2022/05/09 22:49:23;;;;;;;1999.90;999.90;;;;;;;15.85;46.29;101922.78;15684288;28;20091;-59
2022/05/09 22:56:59;;;;;;;1999.90;999.90;;;;;;;15.53;47.10;101915.81;15662485;28;20394;-60
2022/05/09 23:04:31;;;;;;;1999.90;999.90;;;;;;;15.55;46.84;101907.84;15656039;28;20092;-60
2022/05/09 23:12:06;;;;;;;1999.90;999.90;;;;;;;15.53;47.05;101906.53;15711713;28;20517;-60
2022/05/09 23:19:38;;;;;;;1999.90;999.90;;;;;;;15.48;47.21;101907.53;15706512;28;20045;-60
2022/05/09 23:27:12;;;;;;;1999.90;999.90;;;;;;;15.35;47.89;101899.34;15728011;28;20049;-61
2022/05/09 23:34:49;;;;;;;1999.90;999.90;;;;;;;15.29;47.73;101902.31;15708198;28;20052;-59
2022/05/09 23:42:27;;;;;;;1999.90;999.90;;;;;;;15.31;48.07;101885.09;15720229;28;20049;-59
2022/05/09 23:50:00;;;;;;;1999.90;999.90;;;;;;;15.25;48.05;101887.28;15713699;28;20421;-60
2022/05/09 23:57:33;;;;;;;1999.90;999.90;;;;;;;15.40;48.78;101879.44;15781038;22;20477;-75
